sensor_id;sensor_type;location;lat;lon;timestamp;temperature;humidity
52481;DHT22;38393;52.404;13.532;2024-02-04T00:02:23;8.30;99.90
52481;DHT22;38393;52.404;13.532;2024-02-04T00:07:16;8.20;99.90
52481;DHT22;38393;52.404;13.532;2024-02-04T00:09:41;8.20;99.90
52481;DHT22;38393;52.404;13.532;2024-02-04T00:12:11;8.50;99.90
52481;DHT22;38393;52.404;13.532;2024-02-04T00:14:36;8.40;99.90
52481;DHT22;38393;52.404;13.532;2024-02-04T00:17:02;8.30;99.90
52481;DHT22;38393;52.404;13.532;2024-02-04T00:19:28;8.60;99.90
52481;DHT22;38393;52.404;13.532;2024-02-04T00:21:53;8.50;99.90
52481;DHT22;38393;52.404;13.532;2024-02-04T00:24:19;8.40;99.90
52481;DHT22;38393;52.404;13.532;2024-02-04T00:26:45;8.30;99.90
52481;DHT22;38393;52.404;13.532;2024-02-04T00:29:10;8.30;99.90
52481;DHT22;38393;52.404;13.532;2024-02-04T00:31:36;8.40;99.90
52481;DHT22;38393;52.404;13.532;2024-02-04T00:34:01;8.40;99.90
52481;DHT22;38393;52.404;13.532;2024-02-04T00:38:52;8.30;99.90
52481;DHT22;38393;52.404;13.532;2024-02-04T00:41:18;8.30;99.90
52481;DHT22;38393;52.404;13.532;2024-02-04T00:43:43;8.20;99.90
52481;DHT22;38393;52.404;13.532;2024-02-04T00:46:09;8.20;99.90
52481;DHT22;38393;52.404;13.532;2024-02-04T00:48:36;8.10;99.90
52481;DHT22;38393;52.404;13.532;2024-02-04T00:51:02;8.10;99.90
52481;DHT22;38393;52.404;13.532;2024-02-04T00:53:28;8.10;99.90
52481;DHT22;38393;52.404;13.532;2024-02-04T00:58:24;7.90;99.90
52481;DHT22;38393;52.404;13.532;2024-02-04T01:00:50;7.80;99.90
52481;DHT22;38393;52.404;13.532;2024-02-04T01:03:15;7.70;99.90
52481;DHT22;38393;52.404;13.532;2024-02-04T01:05:41;7.70;99.90
52481;DHT22;38393;52.404;13.532;2024-02-04T01:08:06;7.80;99.90
52481;DHT22;38393;52.404;13.532;2024-02-04T01:10:32;7.80;99.90
52481;DHT22;38393;52.404;13.532;2024-02-04T01:12:57;7.80;99.90
52481;DHT22;38393;52.404;13.532;2024-02-04T01:15:22;7.80;99.90
52481;DHT22;38393;52.404;13.532;2024-02-04T01:17:48;7.80;99.90
52481;DHT22;38393;52.404;13.532;2024-02-04T01:20:13;7.60;99.90
52481;DHT22;38393;52.404;13.532;2024-02-04T01:22:39;7.60;99.90
52481;DHT22;38393;52.404;13.532;2024-02-04T01:25:08;7.50;99.90
52481;DHT22;38393;52.404;13.532;2024-02-04T01:27:33;7.40;99.90
52481;DHT22;38393;52.404;13.532;2024-02-04T01:29:59;7.40;99.90
52481;DHT22;38393;52.404;13.532;2024-02-04T01:32:24;7.40;99.90
52481;DHT22;38393;52.404;13.532;2024-02-04T01:34:50;7.30;99.90
52481;DHT22;38393;52.404;13.532;2024-02-04T01:37:15;7.30;99.90
52481;DHT22;38393;52.404;13.532;2024-02-04T01:39:41;7.20;99.90
52481;DHT22;38393;52.404;13.532;2024-02-04T01:42:06;7.10;99.90
52481;DHT22;38393;52.404;13.532;2024-02-04T01:44:32;7.10;99.90
52481;DHT22;38393;52.404;13.532;2024-02-04T01:46:57;7.20;99.90
52481;DHT22;38393;52.404;13.532;2024-02-04T01:49:23;7.10;99.90
52481;DHT22;38393;52.404;13.532;2024-02-04T01:51:48;7.00;99.90
52481;DHT22;38393;52.404;13.532;2024-02-04T01:54:14;7.00;99.90
52481;DHT22;38393;52.404;13.532;2024-02-04T01:56:40;6.90;99.90
52481;DHT22;38393;52.404;13.532;2024-02-04T01:59:07;6.70;99.90
52481;DHT22;38393;52.404;13.532;2024-02-04T02:01:33;6.90;99.90
52481;DHT22;38393;52.404;13.532;2024-02-04T02:03:59;6.90;99.90
52481;DHT22;38393;52.404;13.532;2024-02-04T02:06:27;7.00;99.90
52481;DHT22;38393;52.404;13.532;2024-02-04T02:08:53;6.90;99.90
52481;DHT22;38393;52.404;13.532;2024-02-04T02:11:45;6.70;99.90
52481;DHT22;38393;52.404;13.532;2024-02-04T02:14:16;6.80;99.90
52481;DHT22;38393;52.404;13.532;2024-02-04T02:16:44;6.80;99.90
52481;DHT22;38393;52.404;13.532;2024-02-04T02:22:06;6.80;99.90
52481;DHT22;38393;52.404;13.532;2024-02-04T02:24:39;6.90;99.90
52481;DHT22;38393;52.404;13.532;2024-02-04T02:27:06;6.80;99.90
52481;DHT22;38393;52.404;13.532;2024-02-04T02:29:32;6.70;99.90
52481;DHT22;38393;52.404;13.532;2024-02-04T02:31:58;6.60;99.90
52481;DHT22;38393;52.404;13.532;2024-02-04T02:34:24;6.50;99.90
52481;DHT22;38393;52.404;13.532;2024-02-04T02:37:20;6.50;99.90
52481;DHT22;38393;52.404;13.532;2024-02-04T02:40:06;6.50;99.90
52481;DHT22;38393;52.404;13.532;2024-02-04T02:42:33;6.40;99.90
52481;DHT22;38393;52.404;13.532;2024-02-04T02:45:00;6.40;99.90
52481;DHT22;38393;52.404;13.532;2024-02-04T02:47:26;6.40;99.90
52481;DHT22;38393;52.404;13.532;2024-02-04T02:49:54;6.40;99.90
52481;DHT22;38393;52.404;13.532;2024-02-04T02:52:21;6.40;99.90
52481;DHT22;38393;52.404;13.532;2024-02-04T02:54:47;6.30;99.90
52481;DHT22;38393;52.404;13.532;2024-02-04T02:57:12;6.40;99.90
52481;DHT22;38393;52.404;13.532;2024-02-04T02:59:37;6.40;99.90
52481;DHT22;38393;52.404;13.532;2024-02-04T03:02:03;6.20;99.90
52481;DHT22;38393;52.404;13.532;2024-02-04T03:04:29;6.40;99.90
52481;DHT22;38393;52.404;13.532;2024-02-04T03:06:54;6.40;99.90
52481;DHT22;38393;52.404;13.532;2024-02-04T03:09:20;6.40;99.90
52481;DHT22;38393;52.404;13.532;2024-02-04T03:11:46;6.40;99.90
52481;DHT22;38393;52.404;13.532;2024-02-04T03:14:13;6.40;99.90
52481;DHT22;38393;52.404;13.532;2024-02-04T03:16:39;6.40;99.90
52481;DHT22;38393;52.404;13.532;2024-02-04T03:19:05;6.50;99.90
52481;DHT22;38393;52.404;13.532;2024-02-04T03:21:31;6.60;99.90
52481;DHT22;38393;52.404;13.532;2024-02-04T03:23:56;6.60;99.90
52481;DHT22;38393;52.404;13.532;2024-02-04T03:26:22;6.60;99.90
52481;DHT22;38393;52.404;13.532;2024-02-04T03:28:47;6.70;99.90
52481;DHT22;38393;52.404;13.532;2024-02-04T03:31:20;6.80;99.90
52481;DHT22;38393;52.404;13.532;2024-02-04T03:33:46;6.90;99.90
52481;DHT22;38393;52.404;13.532;2024-02-04T03:36:11;6.80;99.90
52481;DHT22;38393;52.404;13.532;2024-02-04T03:38:37;6.90;99.90
52481;DHT22;38393;52.404;13.532;2024-02-04T03:41:02;6.90;99.90
52481;DHT22;38393;52.404;13.532;2024-02-04T03:43:28;7.00;99.90
52481;DHT22;38393;52.404;13.532;2024-02-04T03:45:53;7.00;99.90
52481;DHT22;38393;52.404;13.532;2024-02-04T03:48:19;7.10;99.90
52481;DHT22;38393;52.404;13.532;2024-02-04T03:50:44;7.10;99.90
52481;DHT22;38393;52.404;13.532;2024-02-04T03:53:10;7.10;99.90
52481;DHT22;38393;52.404;13.532;2024-02-04T03:55:35;7.20;99.90
52481;DHT22;38393;52.404;13.532;2024-02-04T03:58:01;7.30;99.90
52481;DHT22;38393;52.404;13.532;2024-02-04T04:00:26;7.20;99.90
52481;DHT22;38393;52.404;13.532;2024-02-04T04:02:51;6.90;99.90
52481;DHT22;38393;52.404;13.532;2024-02-04T04:05:20;7.00;99.90
52481;DHT22;38393;52.404;13.532;2024-02-04T04:07:45;7.10;99.90
52481;DHT22;38393;52.404;13.532;2024-02-04T04:10:11;7.10;99.90
52481;DHT22;38393;52.404;13.532;2024-02-04T04:12:37;7.10;99.90
52481;DHT22;38393;52.404;13.532;2024-02-04T04:15:02;7.20;99.90
52481;DHT22;38393;52.404;13.532;2024-02-04T04:17:28;6.90;99.90
52481;DHT22;38393;52.404;13.532;2024-02-04T04:19:53;6.90;99.90
52481;DHT22;38393;52.404;13.532;2024-02-04T04:22:19;6.80;99.90
52481;DHT22;38393;52.404;13.532;2024-02-04T04:24:44;6.70;99.90
52481;DHT22;38393;52.404;13.532;2024-02-04T04:27:10;6.70;99.90
52481;DHT22;38393;52.404;13.532;2024-02-04T04:29:35;6.70;99.90
52481;DHT22;38393;52.404;13.532;2024-02-04T04:32:00;6.60;99.90
52481;DHT22;38393;52.404;13.532;2024-02-04T04:34:26;6.60;99.90
52481;DHT22;38393;52.404;13.532;2024-02-04T04:36:51;6.70;99.90
52481;DHT22;38393;52.404;13.532;2024-02-04T04:39:17;6.50;99.90
52481;DHT22;38393;52.404;13.532;2024-02-04T04:41:44;6.40;99.90
52481;DHT22;38393;52.404;13.532;2024-02-04T04:44:10;6.30;99.90
52481;DHT22;38393;52.404;13.532;2024-02-04T04:46:39;6.40;99.90
52481;DHT22;38393;52.404;13.532;2024-02-04T04:49:05;6.30;99.90
52481;DHT22;38393;52.404;13.532;2024-02-04T04:51:30;6.30;99.90
52481;DHT22;38393;52.404;13.532;2024-02-04T04:53:56;6.30;99.90
52481;DHT22;38393;52.404;13.532;2024-02-04T04:56:21;6.30;99.90
52481;DHT22;38393;52.404;13.532;2024-02-04T04:58:47;6.20;99.90
52481;DHT22;38393;52.404;13.532;2024-02-04T05:01:12;6.20;99.90
52481;DHT22;38393;52.404;13.532;2024-02-04T05:03:38;6.10;99.90
52481;DHT22;38393;52.404;13.532;2024-02-04T05:06:03;6.10;99.90
52481;DHT22;38393;52.404;13.532;2024-02-04T05:08:29;6.10;99.90
52481;DHT22;38393;52.404;13.532;2024-02-04T05:10:54;6.10;99.90
52481;DHT22;38393;52.404;13.532;2024-02-04T05:13:20;6.10;99.90
52481;DHT22;38393;52.404;13.532;2024-02-04T05:15:45;6.20;99.90
52481;DHT22;38393;52.404;13.532;2024-02-04T05:18:11;6.10;99.90
52481;DHT22;38393;52.404;13.532;2024-02-04T05:20:40;6.00;99.90
52481;DHT22;38393;52.404;13.532;2024-02-04T05:23:05;6.00;99.90
52481;DHT22;38393;52.404;13.532;2024-02-04T05:25:31;5.90;99.90
52481;DHT22;38393;52.404;13.532;2024-02-04T05:27:56;5.90;99.90
52481;DHT22;38393;52.404;13.532;2024-02-04T05:30:22;5.80;99.90
52481;DHT22;38393;52.404;13.532;2024-02-04T05:32:48;5.90;99.90
52481;DHT22;38393;52.404;13.532;2024-02-04T05:35:13;5.80;99.90
52481;DHT22;38393;52.404;13.532;2024-02-04T05:37:39;5.70;99.90
52481;DHT22;38393;52.404;13.532;2024-02-04T05:40:05;5.70;99.90
52481;DHT22;38393;52.404;13.532;2024-02-04T05:42:30;5.70;99.90
52481;DHT22;38393;52.404;13.532;2024-02-04T05:44:57;5.70;99.90
52481;DHT22;38393;52.404;13.532;2024-02-04T05:47:23;5.70;99.90
52481;DHT22;38393;52.404;13.532;2024-02-04T05:49:48;5.80;99.90
52481;DHT22;38393;52.404;13.532;2024-02-04T05:52:14;5.80;99.90
52481;DHT22;38393;52.404;13.532;2024-02-04T05:54:40;5.80;99.90
52481;DHT22;38393;52.404;13.532;2024-02-04T05:57:06;5.80;99.90
52481;DHT22;38393;52.404;13.532;2024-02-04T05:59:32;5.90;99.90
52481;DHT22;38393;52.404;13.532;2024-02-04T06:01:57;6.00;99.90
52481;DHT22;38393;52.404;13.532;2024-02-04T06:04:23;6.00;99.90
52481;DHT22;38393;52.404;13.532;2024-02-04T06:06:48;6.10;99.90
52481;DHT22;38393;52.404;13.532;2024-02-04T06:09:14;6.10;99.90
52481;DHT22;38393;52.404;13.532;2024-02-04T06:11:39;6.00;99.90
52481;DHT22;38393;52.404;13.532;2024-02-04T06:14:05;6.00;99.90
52481;DHT22;38393;52.404;13.532;2024-02-04T06:16:30;6.00;99.90
52481;DHT22;38393;52.404;13.532;2024-02-04T06:18:56;6.00;99.90
52481;DHT22;38393;52.404;13.532;2024-02-04T06:21:23;6.00;99.90
52481;DHT22;38393;52.404;13.532;2024-02-04T06:23:48;5.90;99.90
52481;DHT22;38393;52.404;13.532;2024-02-04T06:26:14;5.90;99.90
52481;DHT22;38393;52.404;13.532;2024-02-04T06:28:39;6.00;99.90
52481;DHT22;38393;52.404;13.532;2024-02-04T06:31:08;6.00;99.90
52481;DHT22;38393;52.404;13.532;2024-02-04T06:33:34;6.00;99.90
52481;DHT22;38393;52.404;13.532;2024-02-04T06:35:59;6.10;99.90
52481;DHT22;38393;52.404;13.532;2024-02-04T06:38:25;6.20;99.90
52481;DHT22;38393;52.404;13.532;2024-02-04T06:40:50;6.20;99.90
52481;DHT22;38393;52.404;13.532;2024-02-04T06:43:16;6.20;99.90
52481;DHT22;38393;52.404;13.532;2024-02-04T06:45:41;6.30;99.90
52481;DHT22;38393;52.404;13.532;2024-02-04T06:48:07;6.30;99.90
52481;DHT22;38393;52.404;13.532;2024-02-04T06:50:33;6.40;99.90
52481;DHT22;38393;52.404;13.532;2024-02-04T06:52:59;6.30;99.90
52481;DHT22;38393;52.404;13.532;2024-02-04T06:55:24;6.30;99.90
52481;DHT22;38393;52.404;13.532;2024-02-04T06:57:49;6.30;99.90
52481;DHT22;38393;52.404;13.532;2024-02-04T07:00:15;6.30;99.90
52481;DHT22;38393;52.404;13.532;2024-02-04T07:02:42;6.30;99.90
52481;DHT22;38393;52.404;13.532;2024-02-04T07:05:07;6.30;99.90
52481;DHT22;38393;52.404;13.532;2024-02-04T07:07:33;6.30;99.90
52481;DHT22;38393;52.404;13.532;2024-02-04T07:09:59;6.40;99.90
52481;DHT22;38393;52.404;13.532;2024-02-04T07:12:25;6.50;99.90
52481;DHT22;38393;52.404;13.532;2024-02-04T07:14:50;6.50;99.90
52481;DHT22;38393;52.404;13.532;2024-02-04T07:17:16;6.50;99.90
52481;DHT22;38393;52.404;13.532;2024-02-04T07:19:41;6.60;99.90
52481;DHT22;38393;52.404;13.532;2024-02-04T07:22:07;6.70;99.90
52481;DHT22;38393;52.404;13.532;2024-02-04T07:24:32;6.60;99.90
52481;DHT22;38393;52.404;13.532;2024-02-04T07:26:58;6.60;99.90
52481;DHT22;38393;52.404;13.532;2024-02-04T07:29:23;6.60;99.90
52481;DHT22;38393;52.404;13.532;2024-02-04T07:31:49;6.70;99.90
52481;DHT22;38393;52.404;13.532;2024-02-04T07:34:15;6.70;99.90
52481;DHT22;38393;52.404;13.532;2024-02-04T07:36:40;6.70;99.90
52481;DHT22;38393;52.404;13.532;2024-02-04T07:39:06;6.80;99.90
52481;DHT22;38393;52.404;13.532;2024-02-04T07:41:31;6.70;99.90
52481;DHT22;38393;52.404;13.532;2024-02-04T07:43:57;6.80;99.90
52481;DHT22;38393;52.404;13.532;2024-02-04T07:46:23;6.90;99.90
52481;DHT22;38393;52.404;13.532;2024-02-04T07:48:48;6.90;99.90
52481;DHT22;38393;52.404;13.532;2024-02-04T07:51:14;6.90;99.90
52481;DHT22;38393;52.404;13.532;2024-02-04T07:53:39;6.90;99.90
52481;DHT22;38393;52.404;13.532;2024-02-04T07:56:05;6.90;99.90
52481;DHT22;38393;52.404;13.532;2024-02-04T07:58:32;7.00;99.90
52481;DHT22;38393;52.404;13.532;2024-02-04T08:00:58;7.00;99.90
52481;DHT22;38393;52.404;13.532;2024-02-04T08:03:23;7.10;99.90
52481;DHT22;38393;52.404;13.532;2024-02-04T08:05:49;7.00;99.90
52481;DHT22;38393;52.404;13.532;2024-02-04T08:08:14;7.00;99.90
52481;DHT22;38393;52.404;13.532;2024-02-04T08:10:40;7.20;99.90
52481;DHT22;38393;52.404;13.532;2024-02-04T08:13:05;7.30;99.90
52481;DHT22;38393;52.404;13.532;2024-02-04T08:15:31;7.30;99.90
52481;DHT22;38393;52.404;13.532;2024-02-04T08:17:57;7.30;99.90
52481;DHT22;38393;52.404;13.532;2024-02-04T08:20:22;7.40;99.90
52481;DHT22;38393;52.404;13.532;2024-02-04T08:22:48;7.30;99.90
52481;DHT22;38393;52.404;13.532;2024-02-04T08:25:14;7.50;99.90
52481;DHT22;38393;52.404;13.532;2024-02-04T08:27:39;7.50;99.90
52481;DHT22;38393;52.404;13.532;2024-02-04T08:30:05;7.50;99.90
52481;DHT22;38393;52.404;13.532;2024-02-04T08:32:31;7.50;99.90
52481;DHT22;38393;52.404;13.532;2024-02-04T08:34:57;7.70;99.90
52481;DHT22;38393;52.404;13.532;2024-02-04T08:37:22;7.50;99.90
52481;DHT22;38393;52.404;13.532;2024-02-04T08:39:47;7.60;99.90
52481;DHT22;38393;52.404;13.532;2024-02-04T08:42:13;7.70;99.90
52481;DHT22;38393;52.404;13.532;2024-02-04T08:44:39;7.70;99.90
52481;DHT22;38393;52.404;13.532;2024-02-04T08:47:04;7.70;99.90
52481;DHT22;38393;52.404;13.532;2024-02-04T08:49:30;7.60;99.90
52481;DHT22;38393;52.404;13.532;2024-02-04T08:51:56;7.70;99.90
52481;DHT22;38393;52.404;13.532;2024-02-04T08:54:21;7.60;99.90
52481;DHT22;38393;52.404;13.532;2024-02-04T08:56:46;7.70;99.90
52481;DHT22;38393;52.404;13.532;2024-02-04T08:59:12;7.70;99.90
52481;DHT22;38393;52.404;13.532;2024-02-04T09:01:37;7.80;99.90
52481;DHT22;38393;52.404;13.532;2024-02-04T09:04:03;7.80;99.90
52481;DHT22;38393;52.404;13.532;2024-02-04T09:06:29;7.80;99.90
52481;DHT22;38393;52.404;13.532;2024-02-04T09:08:54;7.80;99.90
52481;DHT22;38393;52.404;13.532;2024-02-04T09:11:20;8.10;99.90
52481;DHT22;38393;52.404;13.532;2024-02-04T09:13:46;8.10;99.90
52481;DHT22;38393;52.404;13.532;2024-02-04T09:16:11;8.00;99.90
52481;DHT22;38393;52.404;13.532;2024-02-04T09:18:37;8.10;99.90
52481;DHT22;38393;52.404;13.532;2024-02-04T09:21:03;8.00;99.90
52481;DHT22;38393;52.404;13.532;2024-02-04T09:23:28;8.10;99.90
52481;DHT22;38393;52.404;13.532;2024-02-04T09:25:53;8.00;99.90
52481;DHT22;38393;52.404;13.532;2024-02-04T09:28:19;8.00;99.90
52481;DHT22;38393;52.404;13.532;2024-02-04T09:30:45;8.20;99.90
52481;DHT22;38393;52.404;13.532;2024-02-04T09:33:11;8.10;99.90
52481;DHT22;38393;52.404;13.532;2024-02-04T09:35:37;8.30;99.90
52481;DHT22;38393;52.404;13.532;2024-02-04T09:38:02;8.30;99.90
52481;DHT22;38393;52.404;13.532;2024-02-04T09:40:28;8.30;99.90
52481;DHT22;38393;52.404;13.532;2024-02-04T09:42:55;8.40;99.90
52481;DHT22;38393;52.404;13.532;2024-02-04T09:45:21;8.30;99.90
52481;DHT22;38393;52.404;13.532;2024-02-04T09:47:47;8.50;99.90
52481;DHT22;38393;52.404;13.532;2024-02-04T09:50:15;8.50;99.90
52481;DHT22;38393;52.404;13.532;2024-02-04T09:52:43;8.50;99.90
52481;DHT22;38393;52.404;13.532;2024-02-04T09:55:13;8.60;99.90
52481;DHT22;38393;52.404;13.532;2024-02-04T09:57:40;8.50;99.90
52481;DHT22;38393;52.404;13.532;2024-02-04T10:00:06;8.80;99.90
52481;DHT22;38393;52.404;13.532;2024-02-04T10:02:33;8.60;99.90
52481;DHT22;38393;52.404;13.532;2024-02-04T10:04:59;8.70;99.90
52481;DHT22;38393;52.404;13.532;2024-02-04T10:07:24;8.70;99.90
52481;DHT22;38393;52.404;13.532;2024-02-04T10:09:50;8.70;99.90
52481;DHT22;38393;52.404;13.532;2024-02-04T10:12:17;8.70;99.90
52481;DHT22;38393;52.404;13.532;2024-02-04T10:14:42;8.60;99.90
52481;DHT22;38393;52.404;13.532;2024-02-04T10:17:08;8.70;99.90
52481;DHT22;38393;52.404;13.532;2024-02-04T10:19:33;8.80;99.90
52481;DHT22;38393;52.404;13.532;2024-02-04T10:22:03;8.90;99.90
52481;DHT22;38393;52.404;13.532;2024-02-04T10:24:29;8.80;99.90
52481;DHT22;38393;52.404;13.532;2024-02-04T10:26:55;8.80;99.90
52481;DHT22;38393;52.404;13.532;2024-02-04T10:29:22;8.80;99.90
52481;DHT22;38393;52.404;13.532;2024-02-04T10:34:14;8.90;99.90
52481;DHT22;38393;52.404;13.532;2024-02-04T10:36:40;8.80;99.90
52481;DHT22;38393;52.404;13.532;2024-02-04T10:41:34;8.90;99.90
52481;DHT22;38393;52.404;13.532;2024-02-04T10:44:02;8.90;99.90
52481;DHT22;38393;52.404;13.532;2024-02-04T10:46:30;9.10;99.90
52481;DHT22;38393;52.404;13.532;2024-02-04T10:49:00;9.00;99.90
52481;DHT22;38393;52.404;13.532;2024-02-04T10:51:26;8.80;99.90
52481;DHT22;38393;52.404;13.532;2024-02-04T10:53:54;9.00;99.90
52481;DHT22;38393;52.404;13.532;2024-02-04T10:56:30;9.00;99.90
52481;DHT22;38393;52.404;13.532;2024-02-04T10:58:57;8.70;99.90
52481;DHT22;38393;52.404;13.532;2024-02-04T11:01:25;9.00;99.90
52481;DHT22;38393;52.404;13.532;2024-02-04T11:16:15;9.00;99.90
52481;DHT22;38393;52.404;13.532;2024-02-04T11:19:08;8.80;99.90
52481;DHT22;38393;52.404;13.532;2024-02-04T11:26:48;9.00;99.90
52481;DHT22;38393;52.404;13.532;2024-02-04T11:29:14;8.90;99.90
52481;DHT22;38393;52.404;13.532;2024-02-04T11:34:06;9.20;99.90
52481;DHT22;38393;52.404;13.532;2024-02-04T11:36:38;9.20;99.90
52481;DHT22;38393;52.404;13.532;2024-02-04T11:39:11;9.10;99.90
52481;DHT22;38393;52.404;13.532;2024-02-04T11:41:45;9.00;99.90
52481;DHT22;38393;52.404;13.532;2024-02-04T11:44:12;9.10;99.90
52481;DHT22;38393;52.404;13.532;2024-02-04T11:46:37;9.10;99.90
52481;DHT22;38393;52.404;13.532;2024-02-04T11:49:03;9.20;99.90
52481;DHT22;38393;52.404;13.532;2024-02-04T11:51:29;9.00;99.90
52481;DHT22;38393;52.404;13.532;2024-02-04T11:53:55;9.00;99.90
52481;DHT22;38393;52.404;13.532;2024-02-04T11:56:23;9.10;99.90
52481;DHT22;38393;52.404;13.532;2024-02-04T11:58:49;9.10;99.90
52481;DHT22;38393;52.404;13.532;2024-02-04T12:01:14;9.20;99.90
52481;DHT22;38393;52.404;13.532;2024-02-04T12:03:41;9.30;99.90
52481;DHT22;38393;52.404;13.532;2024-02-04T12:06:06;9.40;99.90
52481;DHT22;38393;52.404;13.532;2024-02-04T12:08:34;9.40;99.90
52481;DHT22;38393;52.404;13.532;2024-02-04T12:11:00;9.30;99.90
52481;DHT22;38393;52.404;13.532;2024-02-04T12:13:28;9.40;99.90
52481;DHT22;38393;52.404;13.532;2024-02-04T12:15:53;9.30;99.90
52481;DHT22;38393;52.404;13.532;2024-02-04T12:18:19;9.30;99.90
52481;DHT22;38393;52.404;13.532;2024-02-04T12:20:48;9.20;99.90
52481;DHT22;38393;52.404;13.532;2024-02-04T12:23:14;9.10;99.90
52481;DHT22;38393;52.404;13.532;2024-02-04T12:25:40;9.20;99.90
52481;DHT22;38393;52.404;13.532;2024-02-04T12:28:05;9.20;99.90
52481;DHT22;38393;52.404;13.532;2024-02-04T12:30:32;9.20;99.90
52481;DHT22;38393;52.404;13.532;2024-02-04T12:33:01;9.10;99.90
52481;DHT22;38393;52.404;13.532;2024-02-04T12:35:28;9.10;99.90
52481;DHT22;38393;52.404;13.532;2024-02-04T12:37:58;8.90;99.90
52481;DHT22;38393;52.404;13.532;2024-02-04T12:40:29;9.00;99.90
52481;DHT22;38393;52.404;13.532;2024-02-04T12:42:59;9.00;99.90
52481;DHT22;38393;52.404;13.532;2024-02-04T12:45:27;9.10;99.90
52481;DHT22;38393;52.404;13.532;2024-02-04T12:47:54;8.90;99.90
52481;DHT22;38393;52.404;13.532;2024-02-04T12:50:20;8.90;99.90
52481;DHT22;38393;52.404;13.532;2024-02-04T12:52:47;8.90;99.90
52481;DHT22;38393;52.404;13.532;2024-02-04T12:55:26;8.90;99.90
52481;DHT22;38393;52.404;13.532;2024-02-04T12:58:05;8.90;99.90
52481;DHT22;38393;52.404;13.532;2024-02-04T13:00:35;8.90;99.90
52481;DHT22;38393;52.404;13.532;2024-02-04T13:03:01;9.00;99.90
52481;DHT22;38393;52.404;13.532;2024-02-04T13:05:27;9.00;99.90
52481;DHT22;38393;52.404;13.532;2024-02-04T13:07:56;9.00;99.90
52481;DHT22;38393;52.404;13.532;2024-02-04T13:10:26;8.80;99.90
52481;DHT22;38393;52.404;13.532;2024-02-04T13:12:59;9.00;99.90
52481;DHT22;38393;52.404;13.532;2024-02-04T13:15:29;9.00;99.90
52481;DHT22;38393;52.404;13.532;2024-02-04T13:17:55;9.00;99.90
52481;DHT22;38393;52.404;13.532;2024-02-04T13:20:22;9.00;99.90
52481;DHT22;38393;52.404;13.532;2024-02-04T13:22:47;9.00;99.90
52481;DHT22;38393;52.404;13.532;2024-02-04T13:25:13;9.00;99.90
52481;DHT22;38393;52.404;13.532;2024-02-04T13:27:40;8.90;99.90
52481;DHT22;38393;52.404;13.532;2024-02-04T13:30:06;8.90;99.90
52481;DHT22;38393;52.404;13.532;2024-02-04T13:32:35;8.90;99.90
52481;DHT22;38393;52.404;13.532;2024-02-04T13:35:00;9.00;99.90
52481;DHT22;38393;52.404;13.532;2024-02-04T13:37:26;9.00;99.90
52481;DHT22;38393;52.404;13.532;2024-02-04T13:39:51;8.90;99.90
52481;DHT22;38393;52.404;13.532;2024-02-04T13:42:17;8.90;99.90
52481;DHT22;38393;52.404;13.532;2024-02-04T13:44:43;8.90;99.90
52481;DHT22;38393;52.404;13.532;2024-02-04T13:47:08;8.90;99.90
52481;DHT22;38393;52.404;13.532;2024-02-04T13:49:33;9.00;99.90
52481;DHT22;38393;52.404;13.532;2024-02-04T13:51:59;8.90;99.90
52481;DHT22;38393;52.404;13.532;2024-02-04T13:54:24;8.90;99.90
52481;DHT22;38393;52.404;13.532;2024-02-04T13:56:50;8.90;99.90
52481;DHT22;38393;52.404;13.532;2024-02-04T13:59:15;8.80;99.90
52481;DHT22;38393;52.404;13.532;2024-02-04T14:01:41;8.80;99.90
52481;DHT22;38393;52.404;13.532;2024-02-04T14:04:07;8.90;99.90
52481;DHT22;38393;52.404;13.532;2024-02-04T14:06:32;8.80;99.90
52481;DHT22;38393;52.404;13.532;2024-02-04T14:08:58;8.80;99.90
52481;DHT22;38393;52.404;13.532;2024-02-04T14:11:23;8.80;99.90
52481;DHT22;38393;52.404;13.532;2024-02-04T14:13:49;8.90;99.90
52481;DHT22;38393;52.404;13.532;2024-02-04T14:16:14;8.80;99.90
52481;DHT22;38393;52.404;13.532;2024-02-04T14:18:40;8.80;99.90
52481;DHT22;38393;52.404;13.532;2024-02-04T14:21:11;9.00;99.90
52481;DHT22;38393;52.404;13.532;2024-02-04T14:23:39;8.80;99.90
52481;DHT22;38393;52.404;13.532;2024-02-04T14:26:04;8.80;99.90
52481;DHT22;38393;52.404;13.532;2024-02-04T14:28:33;8.90;99.90
52481;DHT22;38393;52.404;13.532;2024-02-04T14:31:06;8.90;99.90
52481;DHT22;38393;52.404;13.532;2024-02-04T14:33:32;8.90;99.90
52481;DHT22;38393;52.404;13.532;2024-02-04T14:35:57;8.90;99.90
52481;DHT22;38393;52.404;13.532;2024-02-04T14:38:25;9.00;99.90
52481;DHT22;38393;52.404;13.532;2024-02-04T14:40:50;9.00;99.90
52481;DHT22;38393;52.404;13.532;2024-02-04T14:43:16;8.90;99.90
52481;DHT22;38393;52.404;13.532;2024-02-04T14:45:43;8.90;99.90
52481;DHT22;38393;52.404;13.532;2024-02-04T14:48:08;8.90;99.90
52481;DHT22;38393;52.404;13.532;2024-02-04T14:50:34;8.90;99.90
52481;DHT22;38393;52.404;13.532;2024-02-04T14:53:00;8.80;99.90
52481;DHT22;38393;52.404;13.532;2024-02-04T14:55:25;8.80;99.90
52481;DHT22;38393;52.404;13.532;2024-02-04T14:57:51;8.80;99.90
52481;DHT22;38393;52.404;13.532;2024-02-04T15:00:16;8.90;99.90
52481;DHT22;38393;52.404;13.532;2024-02-04T15:02:42;8.80;99.90
52481;DHT22;38393;52.404;13.532;2024-02-04T15:05:08;8.90;99.90
52481;DHT22;38393;52.404;13.532;2024-02-04T15:07:34;8.90;99.90
52481;DHT22;38393;52.404;13.532;2024-02-04T15:09:59;8.80;99.90
52481;DHT22;38393;52.404;13.532;2024-02-04T15:12:25;8.80;99.90
52481;DHT22;38393;52.404;13.532;2024-02-04T15:14:51;8.80;99.90
52481;DHT22;38393;52.404;13.532;2024-02-04T15:17:17;8.80;99.90
52481;DHT22;38393;52.404;13.532;2024-02-04T15:19:42;8.90;99.90
52481;DHT22;38393;52.404;13.532;2024-02-04T15:22:08;8.80;99.90
52481;DHT22;38393;52.404;13.532;2024-02-04T15:24:34;8.90;99.90
52481;DHT22;38393;52.404;13.532;2024-02-04T15:27:00;8.90;99.90
52481;DHT22;38393;52.404;13.532;2024-02-04T15:29:33;8.90;99.90
52481;DHT22;38393;52.404;13.532;2024-02-04T15:32:00;8.80;99.90
52481;DHT22;38393;52.404;13.532;2024-02-04T15:34:25;8.80;99.90
52481;DHT22;38393;52.404;13.532;2024-02-04T15:36:52;8.80;99.90
52481;DHT22;38393;52.404;13.532;2024-02-04T15:39:17;8.80;99.90
52481;DHT22;38393;52.404;13.532;2024-02-04T15:41:45;8.70;99.90
52481;DHT22;38393;52.404;13.532;2024-02-04T15:44:10;8.90;99.90
52481;DHT22;38393;52.404;13.532;2024-02-04T15:46:36;8.90;99.90
52481;DHT22;38393;52.404;13.532;2024-02-04T15:49:03;9.00;99.90
52481;DHT22;38393;52.404;13.532;2024-02-04T15:51:35;8.90;99.90
52481;DHT22;38393;52.404;13.532;2024-02-04T15:54:01;8.90;99.90
52481;DHT22;38393;52.404;13.532;2024-02-04T15:56:31;8.90;99.90
52481;DHT22;38393;52.404;13.532;2024-02-04T15:59:05;8.90;99.90
52481;DHT22;38393;52.404;13.532;2024-02-04T16:01:33;8.90;99.90